createdAt,value
2023-01-04T00:02:02.011Z,19.90
2023-01-04T00:04:29.972Z,16.52
2023-01-04T00:06:58.100Z,18.38
2023-01-04T00:09:26.094Z,16.38
2023-01-04T00:11:53.980Z,13.05
2023-01-04T00:14:22.150Z,14.80
2023-01-04T00:16:50.118Z,15.75
2023-01-04T00:19:18.107Z,17.92
2023-01-04T00:21:46.349Z,20.10
2023-01-04T00:24:16.430Z,16.83
2023-01-04T00:26:45.197Z,18.45
2023-01-04T00:29:14.458Z,17.40
2023-01-04T00:31:42.684Z,14.90
2023-01-04T00:34:12.409Z,16.17
2023-01-04T00:36:40.692Z,16.25
2023-01-04T00:39:09.322Z,15.55
2023-01-04T00:42:00.068Z,14.63
2023-01-04T00:44:33.570Z,12.68
2023-01-04T00:47:03.348Z,19.02
2023-01-04T00:49:33.713Z,12.52
2023-01-04T00:52:01.977Z,13.18
2023-01-04T00:54:29.876Z,12.93
2023-01-04T00:56:58.710Z,18.65
2023-01-04T00:59:26.580Z,19.25
2023-01-04T01:01:55.273Z,16.35
2023-01-04T01:04:25.250Z,15.18
2023-01-04T01:06:53.839Z,14.07
2023-01-04T01:09:23.890Z,13.80
2023-01-04T01:11:53.372Z,13.18
2023-01-04T01:14:24.285Z,16.23
2023-01-04T01:16:55.918Z,15.85
2023-01-04T01:19:26.031Z,16.50
2023-01-04T01:21:53.944Z,18.95
2023-01-04T01:24:22.221Z,15.85
2023-01-04T01:26:50.235Z,18.10
2023-01-04T01:29:18.346Z,17.35
2023-01-04T01:31:46.405Z,17.77
2023-01-04T01:34:14.394Z,20.60
2023-01-04T01:36:42.452Z,18.70
2023-01-04T01:39:10.418Z,19.45
2023-01-04T01:41:38.323Z,18.67
2023-01-04T01:44:31.800Z,17.38
2023-01-04T01:46:59.901Z,18.75
2023-01-04T01:49:38.336Z,16.27
2023-01-04T01:52:15.410Z,17.00
2023-01-04T01:54:51.009Z,15.50
2023-01-04T01:57:23.872Z,16.45
2023-01-04T01:59:54.276Z,14.90
2023-01-04T02:02:22.974Z,15.77
2023-01-04T02:04:56.719Z,15.25
2023-01-04T02:07:29.129Z,16.30
2023-01-04T02:09:58.686Z,15.98
2023-01-04T02:12:27.006Z,14.90
2023-01-04T02:14:55.041Z,16.05
2023-01-04T02:17:46.053Z,17.42
2023-01-04T02:20:23.486Z,17.98
2023-01-04T02:23:23.716Z,19.23
2023-01-04T02:26:29.563Z,26.67
2023-01-04T02:29:28.367Z,51.45
2023-01-04T02:32:00.287Z,45.28
2023-01-04T02:34:37.557Z,41.92
2023-01-04T02:37:36.599Z,46.65
2023-01-04T02:40:20.878Z,31.27
2023-01-04T02:43:17.923Z,33.72
2023-01-04T02:46:05.589Z,37.60
2023-01-04T02:48:59.936Z,35.30
2023-01-04T02:51:31.461Z,96.72
2023-01-04T02:54:15.983Z,61.17
2023-01-04T02:57:05.686Z,56.83
2023-01-04T02:59:37.016Z,52.10
2023-01-04T03:02:57.654Z,66.50
2023-01-04T03:06:10.143Z,72.25
2023-01-04T03:08:53.292Z,71.60
2023-01-04T03:11:39.983Z,79.28
2023-01-04T03:14:31.680Z,69.78
2023-01-04T03:17:07.017Z,72.72
2023-01-04T03:19:55.398Z,65.57
2023-01-04T03:22:57.685Z,64.47
2023-01-04T03:26:03.997Z,42.70
2023-01-04T03:28:58.508Z,52.17
2023-01-04T03:32:06.725Z,45.47
2023-01-04T03:34:53.167Z,48.85
2023-01-04T03:37:43.751Z,46.35
2023-01-04T03:40:49.793Z,38.47
2023-01-04T03:43:41.346Z,35.47
2023-01-04T03:46:47.066Z,31.75
2023-01-04T03:49:22.824Z,31.33
2023-01-04T03:51:54.624Z,33.58
2023-01-04T03:54:32.697Z,31.45
2023-01-04T03:57:01.649Z,29.55
2023-01-04T03:59:30.040Z,31.02
2023-01-04T04:01:58.498Z,26.85
2023-01-04T04:04:44.847Z,31.58
2023-01-04T04:07:31.344Z,28.70
2023-01-04T04:09:59.267Z,29.85
2023-01-04T04:12:27.191Z,27.13
2023-01-04T04:14:55.123Z,28.90
2023-01-04T04:17:24.096Z,27.20
2023-01-04T04:19:52.044Z,27.95
2023-01-04T04:22:19.983Z,26.98
2023-01-04T04:24:48.291Z,28.25
2023-01-04T04:27:16.194Z,25.70
2023-01-04T04:29:46.722Z,26.92
2023-01-04T04:32:17.732Z,25.27
2023-01-04T04:34:45.700Z,25.63
2023-01-04T04:37:14.046Z,27.25
2023-01-04T04:39:42.064Z,26.23
2023-01-04T04:42:10.448Z,28.30
2023-01-04T04:44:38.403Z,25.38
2023-01-04T04:47:06.353Z,29.77
2023-01-04T04:49:35.123Z,27.95
2023-01-04T04:52:03.055Z,26.90
2023-01-04T04:54:31.003Z,25.23
2023-01-04T04:56:59.085Z,26.00
2023-01-04T04:59:27.178Z,26.27
2023-01-04T05:01:55.284Z,26.52
2023-01-04T05:04:23.313Z,25.80
2023-01-04T05:06:51.673Z,28.15
2023-01-04T05:09:19.943Z,27.08
2023-01-04T05:12:06.356Z,27.70
2023-01-04T05:14:34.333Z,26.30
2023-01-04T05:17:02.387Z,25.05
2023-01-04T05:19:30.427Z,24.27
2023-01-04T05:21:58.373Z,24.88
2023-01-04T05:24:26.302Z,27.85
2023-01-04T05:26:54.188Z,26.52
2023-01-04T05:29:40.886Z,26.60
2023-01-04T05:32:08.935Z,27.45
2023-01-04T05:34:37.029Z,25.73
2023-01-04T05:37:04.936Z,26.75
2023-01-04T05:39:32.862Z,24.33
2023-01-04T05:47:02.841Z,23.83
2023-01-04T05:49:33.674Z,23.05
2023-01-04T05:52:01.709Z,23.63
2023-01-04T06:00:00.841Z,19.38
2023-01-04T06:02:31.848Z,20.17
2023-01-04T06:05:01.412Z,21.20
2023-01-04T06:07:30.310Z,22.00
2023-01-04T06:09:58.726Z,22.02
2023-01-04T06:12:26.923Z,20.60
2023-01-04T06:14:54.874Z,22.15
2023-01-04T06:17:22.831Z,20.50
2023-01-04T06:19:51.042Z,19.45
2023-01-04T06:22:19.319Z,20.00
2023-01-04T06:24:48.174Z,19.33
2023-01-04T06:27:16.532Z,22.55
2023-01-04T06:29:44.628Z,19.10
2023-01-04T06:32:12.676Z,18.40
2023-01-04T06:34:40.711Z,17.75
2023-01-04T06:37:11.681Z,19.77
2023-01-04T06:39:43.102Z,19.80
2023-01-04T06:45:00.941Z,19.65
2023-01-04T06:47:29.171Z,19.67
2023-01-04T06:49:57.336Z,20.85
2023-01-04T06:52:25.416Z,22.35
2023-01-04T06:54:53.480Z,20.17
2023-01-04T06:57:21.412Z,23.83
2023-01-04T06:59:49.453Z,20.02
2023-01-04T07:02:17.896Z,18.20
2023-01-04T07:04:46.266Z,20.40
2023-01-04T07:07:14.530Z,20.23
2023-01-04T07:09:42.619Z,18.88
2023-01-04T07:12:10.855Z,17.10
2023-01-04T07:14:38.892Z,18.40
2023-01-04T07:17:07.007Z,16.70
2023-01-04T07:19:35.055Z,18.75
2023-01-04T07:22:06.333Z,18.80
2023-01-04T07:27:03.213Z,16.38
2023-01-04T07:29:31.257Z,18.08
2023-01-04T07:31:59.475Z,19.42
2023-01-04T07:34:27.948Z,17.95
2023-01-04T07:36:56.470Z,17.75
2023-01-04T07:39:24.579Z,18.13
2023-01-04T07:41:52.629Z,17.08
2023-01-04T07:44:26.793Z,18.60
2023-01-04T07:46:55.656Z,20.08
2023-01-04T07:49:23.972Z,18.85
2023-01-04T07:51:52.235Z,19.20
2023-01-04T07:54:25.577Z,17.55
2023-01-04T07:56:56.622Z,18.05
2023-01-04T07:59:24.778Z,18.67
2023-01-04T08:01:52.946Z,19.98
2023-01-04T08:04:28.269Z,18.58
2023-01-04T08:06:59.090Z,19.92
2023-01-04T08:09:27.019Z,22.13
2023-01-04T08:11:54.951Z,25.58
2023-01-04T08:14:22.927Z,22.83
2023-01-04T08:16:50.962Z,20.15
2023-01-04T08:19:21.566Z,20.88
2023-01-04T08:21:50.030Z,22.20
2023-01-04T08:24:20.381Z,19.15
2023-01-04T08:26:48.453Z,17.65
2023-01-04T08:29:16.574Z,20.35
2023-01-04T08:31:44.678Z,17.02
2023-01-04T08:34:15.189Z,18.02
2023-01-04T08:36:51.524Z,16.93
2023-01-04T08:39:20.082Z,17.30
2023-01-04T08:42:21.927Z,17.92
2023-01-04T08:44:42.909Z,16.25
2023-01-04T08:47:11.300Z,16.67
2023-01-04T08:49:39.925Z,16.63
2023-01-04T08:52:07.878Z,16.92
2023-01-04T08:54:36.039Z,15.00
2023-01-04T08:57:07.616Z,16.42
2023-01-04T08:59:35.876Z,13.02
2023-01-04T09:02:05.885Z,14.93
2023-01-04T09:04:34.521Z,11.90
2023-01-04T09:07:07.807Z,13.27
2023-01-04T09:09:38.657Z,13.88
2023-01-04T09:12:11.761Z,12.52
2023-01-04T09:14:40.330Z,10.45
2023-01-04T09:17:08.528Z,9.10
2023-01-04T09:19:42.810Z,8.15
2023-01-04T09:22:13.885Z,9.85
2023-01-04T09:24:49.663Z,8.02
2023-01-04T09:27:17.776Z,6.15
2023-01-04T09:29:45.924Z,5.53
2023-01-04T09:32:16.771Z,4.22
2023-01-04T09:34:45.578Z,5.05
2023-01-04T09:37:13.554Z,4.07
2023-01-04T09:39:53.492Z,3.92
2023-01-04T09:42:36.982Z,3.45
2023-01-04T09:45:27.124Z,4.93
2023-01-04T09:48:07.730Z,3.80
2023-01-04T09:51:13.561Z,4.57
2023-01-04T09:53:55.132Z,5.07
2023-01-04T09:59:20.989Z,2.80
2023-01-04T10:02:11.731Z,2.05
2023-01-04T10:04:53.264Z,3.00
2023-01-04T10:07:33.661Z,1.80
2023-01-04T10:10:02.428Z,5.93
2023-01-04T10:13:10.579Z,3.58
2023-01-04T10:16:06.393Z,2.25
2023-01-04T10:19:59.765Z,1.52
2023-01-04T10:21:57.489Z,1.45
2023-01-04T10:24:53.856Z,2.53
2023-01-04T10:27:57.424Z,1.83
2023-01-04T10:31:40.925Z,2.40
2023-01-04T10:34:24.587Z,4.80
2023-01-04T10:37:03.587Z,1.40
2023-01-04T10:39:39.263Z,0.70
2023-01-04T10:42:35.579Z,0.82
2023-01-04T10:45:16.657Z,5.82
2023-01-04T10:47:56.783Z,1.50
2023-01-04T10:51:09.007Z,1.52
2023-01-04T10:53:49.655Z,3.30
2023-01-04T10:56:36.779Z,3.35
2023-01-04T10:59:22.916Z,0.93
2023-01-04T11:02:00.853Z,4.68
2023-01-04T11:04:37.876Z,1.95
2023-01-04T11:07:17.186Z,1.10
2023-01-04T11:09:51.258Z,0.82
2023-01-04T11:12:25.124Z,2.95
2023-01-04T11:14:54.205Z,1.58
2023-01-04T11:17:23.244Z,1.00
2023-01-04T11:19:51.513Z,0.52
2023-01-04T11:22:23.348Z,0.82
2023-01-04T11:28:03.317Z,1.10
2023-01-04T11:30:43.649Z,1.38
2023-01-04T11:33:18.509Z,1.70
2023-01-04T11:35:49.576Z,3.65
2023-01-04T11:38:19.507Z,1.23
2023-01-04T11:41:05.488Z,1.95
2023-01-04T11:43:36.470Z,2.13
2023-01-04T11:46:08.145Z,2.45
2023-01-04T11:48:44.667Z,1.42
2023-01-04T11:51:27.819Z,1.02
2023-01-04T11:54:02.296Z,2.00
2023-01-04T11:56:31.759Z,1.15
2023-01-04T11:59:24.534Z,1.02
2023-01-04T12:02:59.986Z,1.73
2023-01-04T12:05:30.062Z,1.23
2023-01-04T12:08:02.514Z,1.23
2023-01-04T12:10:30.591Z,0.90
2023-01-04T12:13:02.103Z,1.90
2023-01-04T12:15:49.371Z,0.47
2023-01-04T12:18:23.841Z,1.63
2023-01-04T12:20:51.794Z,2.65
2023-01-04T12:23:21.587Z,1.92
2023-01-04T12:25:52.572Z,2.80
2023-01-04T12:28:39.187Z,2.67
2023-01-04T12:31:22.093Z,1.40
2023-01-04T12:34:17.804Z,1.30
2023-01-04T12:36:52.024Z,0.65
2023-01-04T12:39:23.855Z,1.58
2023-01-04T12:42:04.782Z,0.70
2023-01-04T12:44:41.387Z,1.00
2023-01-04T12:47:40.123Z,2.97
2023-01-04T12:50:13.121Z,1.15
2023-01-04T12:53:19.534Z,1.33
2023-01-04T12:55:50.791Z,1.00
2023-01-04T13:01:28.812Z,1.75
2023-01-04T13:04:09.393Z,1.73
2023-01-04T13:06:48.153Z,0.93
2023-01-04T13:09:24.027Z,0.77
2023-01-04T13:12:16.874Z,3.47
2023-01-04T13:14:49.843Z,2.58
2023-01-04T13:17:23.620Z,2.05
2023-01-04T13:19:52.212Z,1.98
2023-01-04T13:22:30.001Z,2.25
2023-01-04T13:25:00.383Z,1.75
2023-01-04T13:27:29.205Z,3.42
2023-01-04T13:29:59.589Z,3.20
2023-01-04T13:32:35.604Z,1.65
2023-01-04T13:35:15.256Z,2.92
2023-01-04T13:37:53.144Z,2.13
2023-01-04T13:40:25.735Z,1.33
2023-01-04T13:43:18.580Z,2.38
2023-01-04T13:46:20.061Z,1.95
2023-01-04T13:48:52.273Z,2.78
2023-01-04T13:51:36.164Z,1.15
2023-01-04T13:54:19.484Z,1.65
2023-01-04T13:56:55.043Z,2.47
2023-01-04T13:59:23.628Z,2.40
2023-01-04T14:01:54.728Z,2.45
2023-01-04T14:04:28.602Z,1.52
2023-01-04T14:07:00.246Z,4.03
2023-01-04T14:09:31.654Z,2.40
2023-01-04T14:15:02.014Z,1.95
2023-01-04T14:17:52.764Z,1.75
2023-01-04T14:20:20.763Z,1.17
2023-01-04T14:22:49.367Z,1.27
2023-01-04T14:25:35.551Z,1.77
2023-01-04T14:28:20.326Z,1.50
2023-01-04T14:30:54.460Z,0.93
2023-01-04T14:33:40.323Z,1.27
2023-01-04T14:36:08.733Z,2.15
2023-01-04T14:38:46.064Z,4.90
2023-01-04T14:41:22.155Z,2.80
2023-01-04T14:44:03.731Z,1.73
2023-01-04T14:49:01.013Z,1.63
2023-01-04T14:51:34.365Z,1.38
2023-01-04T14:54:02.339Z,2.70
2023-01-04T14:56:30.260Z,1.63
2023-01-04T14:58:58.279Z,1.80
2023-01-04T15:01:26.797Z,2.75
2023-01-04T15:03:56.733Z,1.95
2023-01-04T15:06:24.992Z,2.47
2023-01-04T15:08:53.653Z,1.17
2023-01-04T15:11:21.658Z,1.75
2023-01-04T15:13:49.588Z,1.73
2023-01-04T15:16:19.660Z,1.90
2023-01-04T15:18:51.123Z,0.75
2023-01-04T15:23:50.345Z,2.22
2023-01-04T15:26:18.384Z,2.40
2023-01-04T15:28:46.318Z,3.47
2023-01-04T15:31:22.437Z,3.42
2023-01-04T15:33:54.561Z,3.28
2023-01-04T15:36:24.258Z,3.00
2023-01-04T15:38:56.501Z,1.42
2023-01-04T15:41:43.172Z,4.00
2023-01-04T15:44:12.495Z,2.15
2023-01-04T15:46:40.871Z,2.45
2023-01-04T15:49:15.068Z,2.53
2023-01-04T15:51:45.254Z,3.15
2023-01-04T15:54:13.610Z,1.98
2023-01-04T15:56:41.609Z,3.85
2023-01-04T15:59:09.703Z,2.95
2023-01-04T16:01:37.724Z,2.13
2023-01-04T16:04:08.041Z,3.20
2023-01-04T16:06:35.972Z,2.35
2023-01-04T16:09:05.017Z,2.50
2023-01-04T16:11:33.175Z,5.65
2023-01-04T16:14:01.309Z,1.60
2023-01-04T16:16:30.049Z,4.15
2023-01-04T16:18:58.671Z,3.22
2023-01-04T16:21:29.516Z,4.30
2023-01-04T16:24:09.169Z,4.72
2023-01-04T16:26:48.569Z,5.53
2023-01-04T16:29:17.153Z,3.20
2023-01-04T16:31:46.465Z,2.65
2023-01-04T16:34:17.434Z,2.45
2023-01-04T16:36:55.819Z,5.18
2023-01-04T16:39:57.213Z,2.75
2023-01-04T16:42:12.066Z,2.08
2023-01-04T16:44:45.417Z,2.08
2023-01-04T16:47:13.984Z,1.33
2023-01-04T16:49:45.126Z,2.03
2023-01-04T16:52:17.280Z,2.45
2023-01-04T16:54:45.365Z,2.17
2023-01-04T16:57:13.797Z,2.83
2023-01-04T16:59:42.126Z,1.95
2023-01-04T17:02:12.326Z,2.17
2023-01-04T17:04:40.584Z,2.17
2023-01-04T17:07:09.375Z,7.05
2023-01-04T17:09:37.487Z,2.55
2023-01-04T17:15:40.653Z,1.75
2023-01-04T17:17:45.760Z,5.88
2023-01-04T17:20:13.721Z,3.75
2023-01-04T17:22:41.690Z,4.07
2023-01-04T17:25:09.901Z,3.78
2023-01-04T17:27:37.906Z,1.88
2023-01-04T17:30:08.433Z,2.63
2023-01-04T17:32:36.461Z,6.07
2023-01-04T17:35:06.394Z,2.30
2023-01-04T17:37:37.796Z,2.65
2023-01-04T17:42:34.610Z,2.00
2023-01-04T17:45:02.544Z,2.95
2023-01-04T17:47:30.484Z,1.45
2023-01-04T17:49:58.448Z,1.65
2023-01-04T17:52:31.355Z,1.92
2023-01-04T17:54:59.764Z,1.23
2023-01-04T17:57:29.750Z,3.67
2023-01-04T17:59:57.719Z,3.40
2023-01-04T18:02:25.664Z,2.42
2023-01-04T18:04:54.033Z,1.92
2023-01-04T18:07:26.060Z,0.90
2023-01-04T18:09:54.513Z,2.95
2023-01-04T18:12:22.851Z,2.17
2023-01-04T18:14:51.160Z,1.38
2023-01-04T18:17:19.264Z,1.27
2023-01-04T18:19:47.363Z,1.25
2023-01-04T18:22:15.461Z,1.00
2023-01-04T18:24:43.333Z,1.85
2023-01-04T18:27:22.546Z,1.05
2023-01-04T18:29:52.496Z,0.55
2023-01-04T18:32:20.944Z,0.35
2023-01-04T18:34:48.970Z,0.65
2023-01-04T18:37:17.500Z,1.17
2023-01-04T18:39:45.467Z,0.80
2023-01-04T18:42:13.447Z,0.60
2023-01-04T18:44:47.924Z,1.08
2023-01-04T18:47:21.941Z,0.85
2023-01-04T18:49:50.893Z,1.48
2023-01-04T18:52:20.097Z,0.57
2023-01-04T18:54:49.471Z,0.93
2023-01-04T18:57:17.749Z,0.90
2023-01-04T18:59:45.696Z,2.03
2023-01-04T19:02:18.849Z,1.20
2023-01-04T19:04:47.284Z,4.80
2023-01-04T19:07:15.452Z,0.93
2023-01-04T19:09:43.883Z,0.63
2023-01-04T19:12:12.208Z,1.65
2023-01-04T19:14:40.296Z,2.38
2023-01-04T19:17:09.452Z,1.45
2023-01-04T19:19:38.135Z,1.60
2023-01-04T19:22:06.446Z,1.15
2023-01-04T19:24:34.386Z,1.20
2023-01-04T19:27:04.113Z,0.65
2023-01-04T19:29:33.337Z,2.33
2023-01-04T19:32:01.205Z,0.85
2023-01-04T19:34:29.695Z,2.22
2023-01-04T19:36:57.597Z,0.38
2023-01-04T19:39:25.552Z,1.00
2023-01-04T19:41:53.441Z,0.68
2023-01-04T19:44:21.634Z,0.95
2023-01-04T19:46:49.590Z,1.48
2023-01-04T19:49:18.363Z,1.60
2023-01-04T19:51:48.152Z,2.38
2023-01-04T19:54:21.697Z,1.20
2023-01-04T19:56:53.038Z,0.98
2023-01-04T19:59:21.151Z,1.27
2023-01-04T20:01:49.221Z,1.15
2023-01-04T20:04:17.389Z,0.63
2023-01-04T20:06:45.325Z,1.38
2023-01-04T20:09:13.362Z,1.27
2023-01-04T20:11:41.444Z,0.82
2023-01-04T20:14:09.348Z,2.30
2023-01-04T20:16:37.351Z,2.58
2023-01-04T20:19:05.328Z,1.15
2023-01-04T20:21:33.349Z,1.52
2023-01-04T20:24:04.752Z,2.70
2023-01-04T20:29:01.492Z,1.48
2023-01-04T20:31:31.825Z,1.17
2023-01-04T20:34:00.030Z,0.95
2023-01-04T20:36:30.978Z,0.70
2023-01-04T20:39:00.583Z,0.73
2023-01-04T20:41:33.522Z,0.38
2023-01-04T20:44:03.107Z,0.90
2023-01-04T20:46:35.706Z,1.02
2023-01-04T20:49:03.934Z,2.15
2023-01-04T20:51:31.929Z,0.60
2023-01-04T20:54:02.752Z,0.95
2023-01-04T20:56:33.479Z,0.47
2023-01-04T20:59:01.366Z,0.50
2023-01-04T21:01:29.378Z,1.75
2023-01-04T21:03:57.725Z,1.45
2023-01-04T21:06:25.955Z,0.75
2023-01-04T21:08:55.814Z,2.65
2023-01-04T21:11:23.938Z,0.50
2023-01-04T21:13:53.060Z,1.85
2023-01-04T21:16:21.107Z,1.00
2023-01-04T21:18:49.026Z,0.43
2023-01-04T21:21:18.394Z,0.98
2023-01-04T21:23:53.030Z,2.75
2023-01-04T21:26:24.157Z,1.60
2023-01-04T21:28:52.094Z,0.70
2023-01-04T21:31:24.828Z,0.90
2023-01-04T21:33:54.459Z,1.63
2023-01-04T21:36:29.665Z,1.10
2023-01-04T21:38:59.525Z,2.65
2023-01-04T21:41:28.050Z,1.92
2023-01-04T21:43:58.699Z,2.00
2023-01-04T21:46:27.476Z,0.67
2023-01-04T21:48:57.447Z,1.17
2023-01-04T21:51:25.613Z,1.15
2023-01-04T21:53:53.805Z,2.03
2023-01-04T21:56:24.453Z,0.80
2023-01-04T21:58:52.785Z,1.40
2023-01-04T22:01:23.676Z,0.60
2023-01-04T22:03:52.174Z,0.88
2023-01-04T22:06:21.678Z,1.20
2023-01-04T22:08:49.995Z,1.90
2023-01-04T22:11:17.905Z,0.52
2023-01-04T22:13:46.191Z,1.67
2023-01-04T22:16:16.406Z,0.63
2023-01-04T22:18:50.960Z,0.73
2023-01-04T22:21:21.420Z,1.20
2023-01-04T22:23:49.417Z,1.98
2023-01-04T22:26:17.423Z,0.60
2023-01-04T22:28:45.511Z,1.88
2023-01-04T22:31:15.004Z,2.00
2023-01-04T22:33:43.587Z,1.60
2023-01-04T22:36:21.935Z,1.15
2023-01-04T22:38:55.921Z,1.02
2023-01-04T22:41:27.247Z,1.35
2023-01-04T22:44:04.487Z,0.75
2023-01-04T22:46:34.489Z,0.40
2023-01-04T22:49:03.436Z,0.80
2023-01-04T22:51:32.464Z,0.90
2023-01-04T22:54:02.882Z,1.63
2023-01-04T22:56:30.784Z,0.93
2023-01-04T22:58:59.541Z,1.15
2023-01-04T23:01:30.592Z,0.82
2023-01-04T23:04:00.689Z,1.80
2023-01-04T23:06:30.506Z,1.25
2023-01-04T23:09:09.014Z,0.52
2023-01-04T23:11:38.290Z,0.85
2023-01-04T23:14:07.765Z,1.15
2023-01-04T23:16:36.522Z,2.28
2023-01-04T23:19:06.743Z,1.92
2023-01-04T23:21:36.058Z,1.98
2023-01-04T23:24:04.770Z,1.88
2023-01-04T23:26:33.726Z,1.98
2023-01-04T23:29:04.779Z,1.48
2023-01-04T23:31:35.868Z,0.63
2023-01-04T23:34:06.230Z,1.80
2023-01-04T23:36:39.138Z,1.17
2023-01-04T23:39:16.814Z,1.77
2023-01-04T23:41:48.283Z,4.10
2023-01-04T23:46:46.384Z,1.35
2023-01-04T23:49:14.790Z,1.80
2023-01-04T23:51:43.693Z,2.03
2023-01-04T23:54:11.776Z,1.83
2023-01-04T23:56:40.291Z,2.55
2023-01-04T23:59:09.099Z,0.93
